Rechercher aéroport 
image banner adimage banner adimage banner ad
image banner ad

1PN7 - Leukhardt's Landing

Situé à Mount Pleasant, United States

ICAO - 1PN7, IATA -

Données fournies par Airmate  

Information générale

Coordonnées: N40°11'3" W79°31'40"
Élévation : 1150 feet MSL.
 
Voir autres Aéroports à Pennsylvania

Données opérationnelles

Special qualification required
Heure actuelle UTC:
Heure actuelle locale:
Météo à : KLBE - Arnold Palmer Rgnl ( 14 km )
METAR: KLBE 150655Z AUTO 20004KT M1/4SM FG OVC001 14/14 A2990 RMK AO2
TAF: KLBE 150536Z 1506/1606 00000KT 4SM BR SCT002 TEMPO 1509/1512 1/2SM FG BKN001 FM151300 30006KT P6SM SCT040 FM151600 30009G17KT P6SM SCT050 FM160000 31007KT P6SM SCT150
Voir NOTAMs / SUP AIP / TFR affectant cet aéroport [VIEW]
Fréquences de communication: [VIEW]

Pistes:

Identifiant RWYQFULongueur (ft)Largeur (ft)SurfaceLDA (ft)
151350100GRASS
331350100GRASS

Coordonnées de l'aéroport

Adresse: Mount Pleasant United States

Vue satellite de 1PN7